地図

経路データ

SID SEASON NUMBER BASIN SUBBASIN NAME ISO_TIME NATURE LAT LON WMO_WIND WMO_PRES WMO_AGENCY TRACK_TYPE DIST2LAND LANDFALL IFLAG USA_AGENCY USA_ATCF_ID USA_LAT USA_LON USA_RECORD USA_STATUS USA_WIND USA_PRES USA_SSHS USA_R34_NE USA_R34_SE USA_R34_SW USA_R34_NW USA_R50_NE USA_R50_SE USA_R50_SW USA_R50_NW USA_R64_NE USA_R64_SE USA_R64_SW USA_R64_NW USA_POCI USA_ROCI USA_RMW USA_EYE TOKYO_LAT TOKYO_LON TOKYO_GRADE TOKYO_WIND TOKYO_PRES TOKYO_R50_DIR TOKYO_R50_LONG TOKYO_R50_SHORT TOKYO_R30_DIR TOKYO_R30_LONG TOKYO_R30_SHORT TOKYO_LAND CMA_LAT CMA_LON CMA_CAT CMA_WIND CMA_PRES HKO_LAT HKO_LON HKO_CAT HKO_WIND HKO_PRES NEWDELHI_LAT NEWDELHI_LON NEWDELHI_GRADE NEWDELHI_WIND NEWDELHI_PRES NEWDELHI_CI NEWDELHI_DP NEWDELHI_POCI REUNION_LAT REUNION_LON REUNION_TYPE REUNION_WIND REUNION_PRES REUNION_TNUM REUNION_CI REUNION_RMW REUNION_R34_NE REUNION_R34_SE REUNION_R34_SW REUNION_R34_NW REUNION_R50_NE REUNION_R50_SE REUNION_R50_SW REUNION_R50_NW REUNION_R64_NE REUNION_R64_SE REUNION_R64_SW REUNION_R64_NW BOM_LAT BOM_LON BOM_TYPE BOM_WIND BOM_PRES BOM_TNUM BOM_CI BOM_RMW BOM_R34_NE BOM_R34_SE BOM_R34_SW BOM_R34_NW BOM_R50_NE BOM_R50_SE BOM_R50_SW BOM_R50_NW BOM_R64_NE BOM_R64_SE BOM_R64_SW BOM_R64_NW BOM_ROCI BOM_POCI BOM_EYE BOM_POS_METHOD BOM_PRES_METHOD NADI_LAT NADI_LON NADI_CAT NADI_WIND NADI_PRES WELLINGTON_LAT WELLINGTON_LON WELLINGTON_WIND WELLINGTON_PRES DS824_LAT DS824_LON DS824_STAGE DS824_WIND DS824_PRES TD9636_LAT TD9636_LON TD9636_STAGE TD9636_WIND TD9636_PRES TD9635_LAT TD9635_LON TD9635_WIND TD9635_PRES TD9635_ROCI NEUMANN_LAT NEUMANN_LON NEUMANN_CLASS NEUMANN_WIND NEUMANN_PRES MLC_LAT MLC_LON MLC_CLASS MLC_WIND MLC_PRES USA_GUST BOM_GUST BOM_GUST_PER REUNION_GUST REUNION_GUST_PER USA_SEAHGT USA_SEARAD_NE USA_SEARAD_SE USA_SEARAD_SW USA_SEARAD_NW STORM_SPEED STORM_DIR
1855121S08073 1855 3 SI MM NOT_NAMED 1855-04-30 18:00:00 NR -7.80000 73.2000 main 1735 1735 __________O___ -1 -7.80000 73.2000 7 19 228
1855121S08073 1855 3 SI MM NOT_NAMED 1855-04-30 21:00:00 NR -8.41693 72.5025 main 1831 1831 __________P___ -1 -8.41693 72.5025 7 18 228
1855121S08073 1855 3 SI MM NOT_NAMED 1855-05-01 00:00:00 NR -8.99664 71.8428 main 1927 1881 __________P___ -1 -8.99664 71.8428 7 16 228
1855121S08073 1855 3 SI MM NOT_NAMED 1855-05-01 03:00:00 NR -9.50292 71.2616 main 1881 1810 __________P___ -1 -9.50292 71.2616 7 14 229
1855121S08073 1855 3 SI MM NOT_NAMED 1855-05-01 06:00:00 NR -9.90000 70.8000 main 1810 1763 __________O___ -1 -9.90000 70.8000 7 10 229
1855121S08073 1855 3 SI MM NOT_NAMED 1855-05-01 09:00:00 NR -10.1668 70.4840 main 1763 1739 __________P___ -1 -10.1668 70.4840 7 7 229
1855121S08073 1855 3 SI MM NOT_NAMED 1855-05-01 12:00:00 NR -10.3391 70.2788 main 1739 1708 __________P___ -1 -10.3391 70.2788 7 5 229
1855121S08073 1855 3 SI MM NOT_NAMED 1855-05-01 15:00:00 NR -10.4670 70.1342 main 1708 1692 __________P___ -1 -10.4670 70.1342 7 4 226
1855121S08073 1855 3 SI MM NOT_NAMED 1855-05-01 18:00:00 NR -10.6000 70.0000 main 1692 1661 __________O___ -1 -10.6000 70.0000 7 5 226
1855121S08073 1855 3 SI MM NOT_NAMED 1855-05-01 21:00:00 NR -10.8066 69.7838 main 1661 1630 __________P___ -1 -10.8066 69.7838 7 6 225
1855121S08073 1855 3 SI MM NOT_NAMED 1855-05-02 00:00:00 NR -11.0276 69.5701 main 1630 1599 __________P___ -1 -11.0276 69.5701 7 6 222
1855121S08073 1855 3 SI MM NOT_NAMED 1855-05-02 03:00:00 NR -11.2597 69.3713 main 1592 1561 __________P___ -1 -11.2597 69.3713 7 6 218
1855121S08073 1855 3 SI MM NOT_NAMED 1855-05-02 06:00:00 NR -11.5000 69.2000 main 1561 1538 __________O___ -1 -11.5000 69.2000 7 6 213
1855121S08073 1855 3 SI MM NOT_NAMED 1855-05-02 09:00:00 NR -11.7346 69.0590 main 1538 1509 __________P___ -1 -11.7346 69.0590 7 5 207
1855121S08073 1855 3 SI MM NOT_NAMED 1855-05-02 12:00:00 NR -11.9774 68.9474 main 1500 1486 __________P___ -1 -11.9774 68.9474 7 5 201
1855121S08073 1855 3 SI MM NOT_NAMED 1855-05-02 15:00:00 NR -12.2315 68.8621 main 1486 1457 __________P___ -1 -12.2315 68.8621 7 5 195
1855121S08073 1855 3 SI MM NOT_NAMED 1855-05-02 18:00:00 NR -12.5000 68.8000 main 1457 1428 __________O___ -1 -12.5000 68.8000 7 6 191
1855121S08073 1855 3 SI MM NOT_NAMED 1855-05-02 21:00:00 NR -12.7815 68.7453 main 1428 1409 __________P___ -1 -12.7815 68.7453 7 6 189
1855121S08073 1855 3 SI MM NOT_NAMED 1855-05-03 00:00:00 NR -13.0775 68.7125 main 1409 1390 __________P___ -1 -13.0775 68.7125 7 6 183
1855121S08073 1855 3 SI MM NOT_NAMED 1855-05-03 03:00:00 NR -13.3847 68.6984 main 1390 1371 __________P___ -1 -13.3847 68.6984 7 6 182
1855121S08073 1855 3 SI MM NOT_NAMED 1855-05-03 06:00:00 NR -13.7000 68.7000 main 1371 1353 __________O___ -1 -13.7000 68.7000 7 6 0
1855121S08073 1855 3 SI MM NOT_NAMED 1855-05-03 09:00:00 NR -14.0219 68.7105 main 1353 1336 __________P___ -1 -14.0219 68.7105 7 7 176
1855121S08073 1855 3 SI MM NOT_NAMED 1855-05-03 12:00:00 NR -14.3500 68.7349 main 1336 1323 __________P___ -1 -14.3500 68.7349 7 7 175
1855121S08073 1855 3 SI MM NOT_NAMED 1855-05-03 15:00:00 NR -14.6781 68.7668 main 1323 1307 __________P___ -1 -14.6781 68.7668 7 7 174
1855121S08073 1855 3 SI MM NOT_NAMED 1855-05-03 18:00:00 NR -15.0000 68.8000 main 1307 1296 __________O___ -1 -15.0000 68.8000 7 6 175
1855121S08073 1855 3 SI MM NOT_NAMED 1855-05-03 21:00:00 NR -15.2625 68.8211 main 1291 1281 __________P___ -1 -15.2625 68.8211 7 5 176
1855121S08073 1855 3 SI MM NOT_NAMED 1855-05-04 00:00:00 NR -15.5250 68.8427 main 1281 1276 __________P___ -1 -15.5250 68.8427 7 6 176
1855121S08073 1855 3 SI MM NOT_NAMED 1855-05-04 03:00:00 NR -15.8250 68.8680 main 1276 1258 __________P___ -1 -15.8250 68.8680 7 7 175
1855121S08073 1855 3 SI MM NOT_NAMED 1855-05-04 06:00:00 NR -16.2000 68.9000 main 1258 1237 __________O___ -1 -16.2000 68.9000 7 9 176
1855121S08073 1855 3 SI MM NOT_NAMED 1855-05-04 09:00:00 NR -16.7082 68.9427 main 1237 1225 __________P___ -1 -16.7082 68.9427 7 11 175
1855121S08073 1855 3 SI MM NOT_NAMED 1855-05-04 12:00:00 NR -17.2901 68.9924 main 1225 1206 __________P___ -1 -17.2901 68.9924 7 12 176
1855121S08073 1855 3 SI MM NOT_NAMED 1855-05-04 15:00:00 NR -17.9020 69.0459 main 1206 1201 __________P___ -1 -17.9020 69.0459 7 12 175
1855121S08073 1855 3 SI MM NOT_NAMED 1855-05-04 18:00:00 NR -18.5000 69.1000 main 1201 1191 __________O___ -1 -18.5000 69.1000 7 12 175
1855121S08073 1855 3 SI MM NOT_NAMED 1855-05-04 21:00:00 NR -19.0502 69.1522 main 1200 1194 __________P___ -1 -19.0502 69.1522 7 11 175
1855121S08073 1855 3 SI MM NOT_NAMED 1855-05-05 00:00:00 NR -19.5574 69.2024 main 1193 1190 __________P___ -1 -19.5574 69.2024 7 10 174
1855121S08073 1855 3 SI MM NOT_NAMED 1855-05-05 03:00:00 NR -20.0358 69.2514 main 1200 1198 __________P___ -1 -20.0358 69.2514 7 10 174
1855121S08073 1855 3 SI MM NOT_NAMED 1855-05-05 06:00:00 NR -20.5000 69.3000 main 1198 __________O___ -1 -20.5000 69.3000 7 9 174

IBTrACS Databaseについて

本データベースは、米国NOAAが公開する1842年以降の世界の熱帯低気圧のベストトラックデータアーカイブInternational Best Track Archive for Climate Stewardship (IBTrACS)を、ウェブで閲覧しやすい形式に変換したものです。

最終更新日:2021-12-03